createdAt,value
2018-07-22T00:03:32.279Z,98.90
2018-07-22T00:06:00.843Z,98.90
2018-07-22T00:08:29.355Z,98.50
2018-07-22T00:10:57.944Z,98.70
2018-07-22T00:13:26.516Z,98.90
2018-07-22T00:15:55.256Z,99.00
2018-07-22T00:18:23.751Z,99.20
2018-07-22T00:20:52.312Z,99.30
2018-07-22T00:23:20.881Z,99.50
2018-07-22T00:25:49.411Z,99.20
2018-07-22T00:28:18.579Z,99.00
2018-07-22T00:30:47.136Z,99.00
2018-07-22T00:33:15.730Z,99.00
2018-07-22T00:35:44.231Z,99.10
2018-07-22T00:38:12.787Z,99.00
2018-07-22T00:40:41.258Z,98.90
2018-07-22T00:43:09.779Z,99.00
2018-07-22T00:45:38.273Z,98.80
2018-07-22T00:48:06.833Z,98.80
2018-07-22T00:50:35.364Z,99.10
2018-07-22T00:53:03.944Z,99.30
2018-07-22T00:55:32.379Z,99.30
2018-07-22T00:58:01.062Z,99.20
2018-07-22T01:00:29.590Z,99.10
2018-07-22T01:02:58.157Z,99.30
2018-07-22T01:05:26.781Z,99.30
2018-07-22T01:07:55.323Z,99.40
2018-07-22T01:10:23.889Z,99.60
2018-07-22T01:12:52.496Z,99.80
2018-07-22T01:15:21.189Z,99.80
2018-07-22T01:17:49.654Z,99.80
2018-07-22T01:20:18.164Z,99.80
2018-07-22T01:22:46.628Z,99.80
2018-07-22T01:25:15.131Z,99.80
2018-07-22T01:27:44.393Z,99.80
2018-07-22T01:30:12.913Z,99.80
2018-07-22T01:32:41.398Z,99.80
2018-07-22T01:35:09.869Z,99.80
2018-07-22T01:37:45.073Z,99.80
2018-07-22T01:40:13.689Z,99.80
2018-07-22T01:42:42.155Z,99.80
2018-07-22T01:45:10.746Z,99.80
2018-07-22T01:47:39.470Z,99.80
2018-07-22T01:50:08.115Z,99.80
2018-07-22T01:52:36.826Z,99.80
2018-07-22T01:55:08.326Z,99.80
2018-07-22T01:57:36.972Z,99.80
2018-07-22T02:00:05.446Z,99.80
2018-07-22T02:02:33.922Z,99.80
2018-07-22T02:05:02.435Z,99.80
2018-07-22T02:07:30.957Z,99.80
2018-07-22T02:09:59.504Z,99.80
2018-07-22T02:12:27.991Z,99.80
2018-07-22T02:14:56.498Z,99.80
2018-07-22T02:17:25.014Z,99.80
2018-07-22T02:19:53.579Z,99.80
2018-07-22T02:22:22.141Z,99.80
2018-07-22T02:24:51.511Z,99.80
2018-07-22T02:27:20.004Z,99.80
2018-07-22T02:29:49.462Z,99.80
2018-07-22T02:32:18.071Z,99.80
2018-07-22T02:34:46.592Z,99.80
2018-07-22T02:37:15.166Z,99.80
2018-07-22T02:39:43.681Z,99.80
2018-07-22T02:42:12.224Z,99.80
2018-07-22T02:44:40.962Z,99.80
2018-07-22T02:47:09.536Z,99.80
2018-07-22T02:49:38.073Z,99.80
2018-07-22T02:52:06.717Z,99.80
2018-07-22T02:54:35.189Z,99.80
2018-07-22T02:57:03.700Z,99.80
2018-07-22T02:59:32.311Z,99.80
2018-07-22T03:02:00.848Z,99.80
2018-07-22T03:04:29.329Z,99.80
2018-07-22T03:06:57.967Z,99.80
2018-07-22T03:09:26.449Z,99.80
2018-07-22T03:11:54.995Z,99.80
2018-07-22T03:14:23.522Z,99.80
2018-07-22T03:16:52.015Z,99.80
2018-07-22T03:19:20.622Z,99.80
2018-07-22T03:21:49.139Z,99.80
2018-07-22T03:24:17.575Z,99.80
2018-07-22T03:26:46.165Z,99.80
2018-07-22T03:29:14.680Z,99.80
2018-07-22T03:31:43.142Z,99.80
2018-07-22T03:34:11.592Z,99.80
2018-07-22T03:36:40.198Z,99.80
2018-07-22T03:39:10.076Z,99.80
2018-07-22T03:41:38.902Z,99.80
2018-07-22T03:44:07.695Z,99.80
2018-07-22T03:46:36.406Z,99.80
2018-07-22T03:49:04.980Z,99.80
2018-07-22T03:51:33.459Z,99.80
2018-07-22T03:54:02.134Z,99.80
2018-07-22T03:56:30.636Z,99.80
2018-07-22T03:58:59.247Z,99.80
2018-07-22T04:01:27.827Z,99.80
2018-07-22T04:03:56.347Z,99.80
2018-07-22T04:06:24.840Z,99.80
2018-07-22T04:08:53.334Z,99.80
2018-07-22T04:11:21.812Z,99.80
2018-07-22T04:13:50.326Z,99.80
2018-07-22T04:16:18.839Z,99.80
2018-07-22T04:18:52.442Z,99.80
2018-07-22T04:21:22.375Z,99.80
2018-07-22T04:23:51.223Z,99.80
2018-07-22T04:26:20.551Z,99.80
2018-07-22T04:28:49.332Z,99.80
2018-07-22T04:31:17.848Z,99.80
2018-07-22T04:33:46.369Z,99.80
2018-07-22T04:36:14.864Z,99.80
2018-07-22T04:38:43.378Z,99.80
2018-07-22T04:41:11.858Z,99.80
2018-07-22T04:43:40.456Z,99.80
2018-07-22T04:46:08.994Z,99.80
2018-07-22T04:48:37.450Z,99.80
2018-07-22T04:51:06.300Z,99.80
2018-07-22T04:53:34.876Z,99.80
2018-07-22T04:56:03.751Z,99.80
2018-07-22T04:58:32.283Z,99.80
2018-07-22T05:01:00.824Z,99.80
2018-07-22T05:03:29.296Z,99.80
2018-07-22T05:05:57.791Z,99.70
2018-07-22T05:08:26.268Z,99.70
2018-07-22T05:10:54.755Z,99.30
2018-07-22T05:13:23.955Z,99.40
2018-07-22T05:15:52.552Z,98.40
2018-07-22T05:18:21.032Z,97.80
2018-07-22T05:20:49.519Z,97.30
2018-07-22T05:23:18.022Z,96.70
2018-07-22T05:25:46.569Z,96.20
2018-07-22T05:28:15.060Z,95.70
2018-07-22T05:30:43.574Z,95.50
2018-07-22T05:33:12.123Z,94.80
2018-07-22T05:35:40.673Z,93.60
2018-07-22T05:38:09.150Z,93.20
2018-07-22T05:40:37.723Z,92.50
2018-07-22T05:43:06.375Z,91.90
2018-07-22T05:45:34.837Z,90.80
2018-07-22T05:48:03.285Z,90.60
2018-07-22T05:50:31.889Z,90.00
2018-07-22T05:53:00.364Z,89.10
2018-07-22T05:55:28.874Z,89.20
2018-07-22T05:57:57.393Z,89.60
2018-07-22T06:00:32.319Z,89.30
2018-07-22T06:03:01.423Z,89.20
2018-07-22T06:05:29.887Z,88.80
2018-07-22T06:07:58.452Z,89.00
2018-07-22T06:10:27.199Z,89.70
2018-07-22T06:12:55.757Z,89.30
2018-07-22T06:15:24.310Z,89.10
2018-07-22T06:17:52.811Z,89.30
2018-07-22T06:20:21.333Z,90.30
2018-07-22T06:22:49.846Z,90.70
2018-07-22T06:25:18.314Z,90.10
2018-07-22T06:27:46.905Z,89.70
2018-07-22T06:30:15.503Z,90.30
2018-07-22T06:32:44.069Z,89.30
2018-07-22T06:35:12.772Z,88.50
2018-07-22T06:37:41.427Z,88.40
2018-07-22T06:40:09.961Z,87.70
2018-07-22T06:42:38.756Z,87.90
2018-07-22T06:45:07.377Z,87.40
2018-07-22T06:47:35.920Z,87.50
2018-07-22T06:50:04.831Z,86.50
2018-07-22T06:52:33.383Z,85.40
2018-07-22T06:55:01.856Z,85.10
2018-07-22T06:57:30.326Z,83.40
2018-07-22T06:59:58.827Z,83.20
2018-07-22T07:02:27.298Z,81.90
2018-07-22T07:05:00.327Z,79.70
2018-07-22T07:07:28.760Z,79.40
2018-07-22T07:09:57.308Z,80.90
2018-07-22T07:12:26.754Z,80.90
2018-07-22T07:14:55.272Z,80.80
2018-07-22T07:17:25.850Z,81.10
2018-07-22T07:19:54.471Z,82.20
2018-07-22T07:22:23.043Z,82.10
2018-07-22T07:24:51.757Z,82.30
2018-07-22T07:27:20.230Z,83.20
2018-07-22T07:29:48.731Z,83.60
2018-07-22T07:32:17.199Z,83.80
2018-07-22T07:34:45.728Z,84.00
2018-07-22T07:37:14.812Z,83.20
2018-07-22T07:39:43.267Z,83.50
2018-07-22T07:42:11.823Z,83.20
2018-07-22T07:44:40.308Z,82.30
2018-07-22T07:47:08.955Z,81.30
2018-07-22T07:49:42.203Z,81.20
2018-07-22T07:52:12.871Z,78.70
2018-07-22T07:54:41.488Z,78.90
2018-07-22T07:57:14.789Z,80.00
2018-07-22T07:59:46.191Z,81.00
2018-07-22T08:02:14.710Z,79.80
2018-07-22T08:04:43.181Z,80.50
2018-07-22T08:07:11.779Z,79.10
2018-07-22T08:09:40.378Z,78.30
2018-07-22T08:12:08.854Z,77.70
2018-07-22T08:14:37.350Z,77.80
2018-07-22T08:17:06.115Z,76.60
2018-07-22T08:19:34.669Z,75.40
2018-07-22T08:22:03.282Z,74.50
2018-07-22T08:24:31.782Z,74.20
2018-07-22T08:27:00.475Z,75.00
2018-07-22T08:29:31.067Z,75.60
2018-07-22T08:32:00.090Z,75.40
2018-07-22T08:34:28.809Z,75.90
2018-07-22T08:36:57.349Z,76.20
2018-07-22T08:39:28.177Z,75.40
2018-07-22T08:42:00.446Z,76.30
2018-07-22T08:44:29.105Z,75.90
2018-07-22T08:46:59.296Z,76.10
2018-07-22T08:49:31.933Z,76.40
2018-07-22T08:52:09.392Z,76.30
2018-07-22T08:54:43.646Z,75.40
2018-07-22T08:57:12.308Z,74.60
2018-07-22T08:59:40.936Z,74.90
2018-07-22T09:04:38.254Z,74.10
2018-07-22T09:07:10.166Z,73.60
2018-07-22T09:09:38.775Z,73.30
2018-07-22T09:12:07.375Z,70.80
2018-07-22T09:14:37.272Z,68.50
2018-07-22T09:17:07.710Z,69.30
2018-07-22T09:19:36.394Z,69.20
2018-07-22T09:22:05.027Z,69.80
2018-07-22T09:24:37.265Z,69.90
2018-07-22T09:27:15.860Z,69.70
2018-07-22T09:29:44.402Z,69.90
2018-07-22T09:32:12.948Z,68.10
2018-07-22T09:34:41.454Z,67.70
2018-07-22T09:37:10.034Z,66.80
2018-07-22T09:39:38.622Z,67.30
2018-07-22T09:42:07.247Z,68.20
2018-07-22T09:47:04.081Z,67.80
2018-07-22T09:49:39.137Z,67.70
2018-07-22T09:52:08.642Z,67.30
2018-07-22T09:54:37.178Z,67.10
2018-07-22T09:57:05.766Z,66.30
2018-07-22T09:59:34.328Z,66.90
2018-07-22T10:02:03.322Z,66.10
2018-07-22T10:04:31.919Z,67.00
2018-07-22T10:07:00.419Z,66.90
2018-07-22T10:09:29.824Z,66.50
2018-07-22T10:11:58.390Z,65.70
2018-07-22T10:14:29.269Z,64.40
2018-07-22T10:17:01.934Z,64.60
2018-07-22T10:19:30.935Z,64.40
2018-07-22T10:21:59.528Z,63.70
2018-07-22T10:24:28.108Z,63.10
2018-07-22T10:29:24.856Z,60.50
2018-07-22T10:31:54.027Z,61.40
2018-07-22T10:34:23.676Z,61.00
2018-07-22T10:36:53.105Z,61.10
2018-07-22T10:39:21.668Z,60.50
2018-07-22T10:41:50.259Z,61.00
2018-07-22T10:44:18.988Z,61.10
2018-07-22T10:46:47.547Z,60.50
2018-07-22T10:49:16.091Z,60.20
2018-07-22T10:51:44.668Z,59.90
2018-07-22T10:54:13.260Z,59.20
2018-07-22T10:56:41.867Z,58.70
2018-07-22T10:59:10.661Z,59.00
2018-07-22T11:01:42.452Z,58.20
2018-07-22T11:04:10.933Z,57.00
2018-07-22T11:06:39.452Z,57.70
2018-07-22T11:09:09.216Z,56.10
2018-07-22T11:11:37.970Z,54.70
2018-07-22T11:14:06.592Z,54.40
2018-07-22T11:16:35.047Z,52.00
2018-07-22T11:19:03.560Z,52.30
2018-07-22T11:21:32.088Z,52.10
2018-07-22T11:24:00.740Z,52.40
2018-07-22T11:26:29.279Z,50.80
2018-07-22T11:28:57.784Z,51.00
2018-07-22T11:31:26.565Z,50.90
2018-07-22T11:33:55.057Z,50.80
2018-07-22T11:36:23.644Z,51.70
2018-07-22T11:38:52.159Z,51.40
2018-07-22T11:41:20.691Z,50.90
2018-07-22T11:43:49.185Z,51.30
2018-07-22T11:46:17.700Z,50.10
2018-07-22T11:48:46.239Z,50.50
2018-07-22T11:51:14.760Z,49.40
2018-07-22T11:53:43.721Z,47.80
2018-07-22T11:56:12.250Z,48.60
2018-07-22T11:58:41.780Z,48.20
2018-07-22T12:01:10.293Z,47.10
2018-07-22T12:03:38.812Z,48.70
2018-07-22T12:06:07.301Z,48.80
2018-07-22T12:11:04.004Z,48.50
2018-07-22T12:13:32.505Z,47.30
2018-07-22T12:16:01.129Z,48.60
2018-07-22T12:18:29.667Z,45.30
2018-07-22T12:20:58.271Z,41.30
2018-07-22T12:23:26.854Z,38.50
2018-07-22T12:25:55.467Z,37.90
2018-07-22T12:28:24.065Z,35.70
2018-07-22T12:30:52.863Z,35.70
2018-07-22T12:33:27.899Z,35.10
2018-07-22T12:35:56.598Z,34.30
2018-07-22T12:38:25.088Z,33.90
2018-07-22T12:40:53.671Z,33.50
2018-07-22T12:43:24.646Z,32.80
2018-07-22T12:45:53.136Z,35.10
2018-07-22T12:48:21.968Z,37.20
2018-07-22T12:50:50.553Z,38.40
2018-07-22T12:53:19.127Z,40.90
2018-07-22T12:55:47.585Z,41.50
2018-07-22T12:58:16.116Z,41.30
2018-07-22T13:00:44.779Z,41.80
2018-07-22T13:03:18.884Z,43.30
2018-07-22T13:05:47.488Z,43.50
2018-07-22T13:08:16.344Z,44.30
2018-07-22T13:10:44.954Z,45.60
2018-07-22T13:13:13.811Z,43.90
2018-07-22T13:15:42.278Z,42.40
2018-07-22T13:18:10.873Z,41.20
2018-07-22T13:20:39.349Z,40.70
2018-07-22T13:23:08.619Z,37.80
2018-07-22T13:25:37.152Z,35.50
2018-07-22T13:28:05.835Z,35.90
2018-07-22T13:30:34.416Z,38.50
2018-07-22T13:33:02.949Z,38.00
2018-07-22T13:35:31.463Z,38.00
2018-07-22T13:38:00.185Z,37.70
2018-07-22T13:40:28.710Z,39.40
2018-07-22T13:42:57.245Z,42.20
2018-07-22T13:45:25.959Z,45.80
2018-07-22T13:47:54.439Z,47.90
2018-07-22T13:50:22.948Z,49.60
2018-07-22T13:52:51.379Z,50.50
2018-07-22T13:55:20.827Z,50.70
2018-07-22T13:57:49.311Z,50.90
2018-07-22T14:00:17.914Z,51.50
2018-07-22T14:02:46.399Z,52.10
2018-07-22T14:07:43.235Z,54.30
2018-07-22T14:10:11.804Z,56.60
2018-07-22T14:12:40.283Z,57.40
2018-07-22T14:15:08.955Z,57.70
2018-07-22T14:17:37.523Z,58.10
2018-07-22T14:20:06.264Z,59.10
2018-07-22T14:22:34.739Z,59.50
2018-07-22T14:25:03.347Z,59.20
2018-07-22T14:27:31.988Z,58.90
2018-07-22T14:30:00.476Z,59.00
2018-07-22T14:32:29.865Z,59.00
2018-07-22T14:34:58.469Z,57.70
2018-07-22T14:37:27.043Z,56.90
2018-07-22T14:39:55.653Z,57.00
2018-07-22T14:42:24.351Z,56.60
2018-07-22T14:47:21.046Z,52.90
2018-07-22T14:53:34.974Z,50.80
2018-07-22T14:56:03.447Z,49.60
2018-07-22T14:58:32.079Z,49.60
2018-07-22T15:01:00.578Z,50.30
2018-07-22T15:03:29.823Z,51.80
2018-07-22T15:05:58.387Z,53.10
2018-07-22T15:08:26.995Z,55.90
2018-07-22T15:11:02.247Z,57.20
2018-07-22T15:13:30.830Z,58.30
2018-07-22T15:15:59.330Z,59.20
2018-07-22T15:18:27.844Z,59.40
2018-07-22T15:20:56.467Z,59.60
2018-07-22T15:23:25.012Z,60.40
2018-07-22T15:25:53.474Z,61.10
2018-07-22T15:28:21.928Z,61.20
2018-07-22T15:30:50.589Z,60.00
2018-07-22T15:33:19.063Z,60.40
2018-07-22T15:35:47.580Z,60.30
2018-07-22T15:38:16.166Z,60.90
2018-07-22T15:40:44.670Z,61.10
2018-07-22T15:43:13.250Z,61.70
2018-07-22T15:45:41.808Z,62.00
2018-07-22T15:48:10.504Z,62.10
2018-07-22T15:50:39.022Z,62.30
2018-07-22T15:53:07.644Z,62.70
2018-07-22T15:55:36.347Z,63.00
2018-07-22T15:58:05.660Z,63.40
2018-07-22T16:00:34.239Z,63.80
2018-07-22T16:03:02.738Z,64.30
2018-07-22T16:05:31.413Z,65.40
2018-07-22T16:08:00.027Z,66.40
2018-07-22T16:10:28.587Z,66.30
2018-07-22T16:12:57.131Z,66.80
2018-07-22T16:15:25.711Z,66.60
2018-07-22T16:17:54.282Z,66.80
2018-07-22T16:20:24.358Z,66.30
2018-07-22T16:22:52.915Z,65.70
2018-07-22T16:25:21.500Z,64.60
2018-07-22T16:27:50.006Z,63.30
2018-07-22T16:30:18.779Z,63.10
2018-07-22T16:32:47.429Z,63.70
2018-07-22T16:35:15.987Z,64.60
2018-07-22T16:37:44.503Z,64.30
2018-07-22T16:40:13.047Z,64.10
2018-07-22T16:42:41.704Z,63.60
2018-07-22T16:45:10.380Z,63.50
2018-07-22T16:47:39.090Z,63.60
2018-07-22T16:50:07.676Z,64.00
2018-07-22T16:52:36.219Z,63.40
2018-07-22T16:55:04.864Z,63.70
2018-07-22T16:57:34.120Z,64.20
2018-07-22T17:00:02.850Z,65.20
2018-07-22T17:02:31.356Z,67.30
2018-07-22T17:05:00.704Z,69.10
2018-07-22T17:07:30.367Z,70.10
2018-07-22T17:09:59.770Z,71.00
2018-07-22T17:12:28.321Z,71.20
2018-07-22T17:14:57.140Z,71.70
2018-07-22T17:17:25.762Z,71.20
2018-07-22T17:19:54.280Z,71.50
2018-07-22T17:22:23.497Z,70.10
2018-07-22T17:24:51.983Z,70.10
2018-07-22T17:27:21.458Z,70.90
2018-07-22T17:29:49.967Z,71.20
2018-07-22T17:32:18.496Z,71.80
2018-07-22T17:34:46.971Z,72.20
2018-07-22T17:37:15.571Z,71.90
2018-07-22T17:39:44.465Z,72.20
2018-07-22T17:42:13.239Z,72.60
2018-07-22T17:44:41.817Z,72.60
2018-07-22T17:47:10.293Z,73.00
2018-07-22T17:49:38.881Z,73.30
2018-07-22T17:52:07.447Z,73.30
2018-07-22T17:54:40.148Z,73.20
2018-07-22T17:57:08.780Z,73.80
2018-07-22T17:59:37.360Z,73.80
2018-07-22T18:02:05.954Z,74.00
2018-07-22T18:04:34.548Z,74.30
2018-07-22T18:07:03.241Z,74.60
2018-07-22T18:09:32.048Z,75.00
2018-07-22T18:12:00.830Z,76.90
2018-07-22T18:14:29.355Z,78.20
2018-07-22T18:16:57.846Z,78.90
2018-07-22T18:19:26.376Z,79.20
2018-07-22T18:21:55.060Z,80.10
2018-07-22T18:24:23.593Z,80.70
2018-07-22T18:26:52.135Z,81.10
2018-07-22T18:29:20.796Z,81.60
2018-07-22T18:31:49.663Z,82.10
2018-07-22T18:34:19.867Z,82.50
2018-07-22T18:36:48.393Z,83.00
2018-07-22T18:39:16.968Z,83.50
2018-07-22T18:41:45.754Z,83.70
2018-07-22T18:44:14.318Z,84.10
2018-07-22T18:46:43.150Z,84.20
2018-07-22T18:49:12.147Z,84.70
2018-07-22T18:51:40.761Z,84.90
2018-07-22T18:54:09.560Z,85.00
2018-07-22T18:56:38.438Z,85.30
2018-07-22T18:59:07.257Z,85.50
2018-07-22T19:01:36.092Z,85.60
2018-07-22T19:04:04.915Z,85.70
2018-07-22T19:06:33.701Z,85.70
2018-07-22T19:09:02.712Z,85.90
2018-07-22T19:11:31.542Z,86.10
2018-07-22T19:14:02.742Z,86.40
2018-07-22T19:16:31.593Z,86.60
2018-07-22T19:19:00.377Z,86.90
2018-07-22T19:21:29.952Z,87.20
2018-07-22T19:24:04.767Z,87.40
2018-07-22T19:26:35.244Z,87.50
2018-07-22T19:29:06.840Z,87.60
2018-07-22T19:31:51.569Z,87.80
2018-07-22T19:34:33.774Z,87.90
2018-07-22T19:37:06.888Z,88.00
2018-07-22T19:40:03.662Z,88.40
2018-07-22T19:42:46.162Z,88.50
2018-07-22T19:45:43.472Z,88.30
2018-07-22T19:51:07.078Z,88.80
2018-07-22T19:53:45.217Z,89.00
2018-07-22T19:56:18.587Z,89.10
2018-07-22T19:58:48.642Z,89.20
2018-07-22T20:01:21.385Z,89.50
2018-07-22T20:03:50.605Z,89.70
2018-07-22T20:06:19.470Z,89.90
2018-07-22T20:08:48.344Z,90.20
2018-07-22T20:11:17.166Z,90.40
2018-07-22T20:13:45.992Z,90.50
2018-07-22T20:16:14.826Z,90.30
2018-07-22T20:18:43.726Z,90.30
2018-07-22T20:21:12.599Z,90.30
2018-07-22T20:23:41.456Z,90.20
2018-07-22T20:26:10.325Z,90.40
2018-07-22T20:28:38.947Z,90.20
2018-07-22T20:31:07.787Z,90.30
2018-07-22T20:33:36.403Z,90.30
2018-07-22T20:36:05.388Z,90.30
2018-07-22T20:38:36.076Z,90.40
2018-07-22T20:41:05.611Z,90.50
2018-07-22T20:43:34.547Z,90.30
2018-07-22T20:46:03.189Z,90.20
2018-07-22T20:48:31.755Z,90.10
2018-07-22T20:51:00.862Z,90.10
2018-07-22T20:53:32.253Z,90.10
2018-07-22T20:56:01.231Z,90.20
2018-07-22T20:58:35.045Z,90.40
2018-07-22T21:01:07.685Z,90.60
2018-07-22T21:03:42.718Z,90.80
2018-07-22T21:06:11.408Z,90.90
2018-07-22T21:08:43.190Z,91.20
2018-07-22T21:13:54.533Z,91.60
2018-07-22T21:16:24.121Z,91.70
2018-07-22T21:19:03.986Z,91.80
2018-07-22T21:21:32.688Z,92.00
2018-07-22T21:24:02.278Z,92.00
2018-07-22T21:26:30.807Z,92.10
2018-07-22T21:28:59.371Z,92.10
2018-07-22T21:31:28.682Z,92.10
2018-07-22T21:33:57.370Z,91.90
2018-07-22T21:38:54.055Z,92.20
2018-07-22T21:41:22.578Z,92.40
2018-07-22T21:43:51.326Z,92.50
2018-07-22T21:46:19.943Z,92.70
2018-07-22T21:48:48.459Z,92.60
2018-07-22T21:51:17.012Z,92.60
2018-07-22T21:53:45.673Z,92.90
2018-07-22T21:56:14.138Z,93.10
2018-07-22T21:58:43.962Z,93.60
2018-07-22T22:01:13.056Z,93.90
2018-07-22T22:03:41.595Z,94.40
2018-07-22T22:06:10.655Z,94.60
2018-07-22T22:08:39.152Z,94.90
2018-07-22T22:11:07.746Z,95.30
2018-07-22T22:13:36.260Z,95.60
2018-07-22T22:16:06.208Z,96.00
2018-07-22T22:18:34.771Z,96.10
2018-07-22T22:23:31.741Z,96.40
2018-07-22T22:26:00.223Z,96.70
2018-07-22T22:28:28.762Z,96.90
2018-07-22T22:30:57.323Z,97.00
2018-07-22T22:33:25.810Z,96.80
2018-07-22T22:35:54.579Z,96.60
2018-07-22T22:38:23.126Z,96.90
2018-07-22T22:40:51.556Z,96.80
2018-07-22T22:43:20.126Z,97.10
2018-07-22T22:45:48.631Z,97.10
2018-07-22T22:48:17.186Z,96.80
2018-07-22T22:50:46.068Z,96.40
2018-07-22T22:53:14.644Z,96.40
2018-07-22T22:55:43.231Z,96.40
2018-07-22T22:58:24.471Z,96.70
2018-07-22T23:00:52.996Z,96.70
2018-07-22T23:03:21.655Z,96.70
2018-07-22T23:05:50.202Z,97.00
2018-07-22T23:08:18.898Z,97.10
2018-07-22T23:10:47.361Z,96.90
2018-07-22T23:13:20.717Z,96.30
2018-07-22T23:15:49.178Z,96.10
2018-07-22T23:18:17.792Z,95.80
2018-07-22T23:20:46.288Z,95.90
2018-07-22T23:23:14.778Z,96.70
2018-07-22T23:25:43.326Z,97.00
2018-07-22T23:28:11.898Z,97.20
2018-07-22T23:30:40.560Z,97.10
2018-07-22T23:33:09.084Z,97.10
2018-07-22T23:35:37.669Z,97.20
2018-07-22T23:38:06.414Z,97.40
2018-07-22T23:40:34.967Z,97.60
2018-07-22T23:43:03.477Z,97.90
2018-07-22T23:45:31.971Z,98.00
2018-07-22T23:48:00.563Z,98.10
2018-07-22T23:50:29.062Z,98.20
2018-07-22T23:52:57.760Z,98.10
2018-07-22T23:55:26.348Z,97.70
2018-07-22T23:57:54.800Z,97.90
